Austin, Pennsylvania
Current Conditions -  °F | °C
As of 11:53 PM on Wednesday 22 Oct 2014 (Local Time) from KBFD Reporting Station
Overcast Overcast  
Wind Chill: 37°   Ceiling: 500
Heat Index: 42°   Visibility: 10mi
Dew Point: 39°   Wind: 9mph
Humidity: 89%   Direction: 350°N
Pressure: 30.1"   Gusts: NA
Location:  41.63°N, 78.09°W
Report Text: KBFD 230353Z AUTO 35008KT 10SM OVC005 06/04 A3010 RMK AO2 SLP204 T00560039
Loading
Personal Weather Stations






























Interactive Weather Map
Tropical Storm Tracking
New forecast layout! Learn more

10-Day Weather Forecast

Advertisements
Track Severe Weather on mobile